createdAt,value
2017-03-15T00:00:35.536Z,1021.16
2017-03-15T00:01:46.094Z,1021.1
2017-03-15T00:02:56.398Z,1021.12
2017-03-15T00:04:06.399Z,1021.11
2017-03-15T00:05:16.702Z,1021.14
2017-03-15T00:06:27.035Z,1021.12
2017-03-15T00:07:37.642Z,1021.15
2017-03-15T00:08:47.629Z,1021.05
2017-03-15T00:09:57.933Z,1021.05
2017-03-15T00:11:08.215Z,1021.05
2017-03-15T00:12:18.514Z,1020.99
2017-03-15T00:13:28.507Z,1021.01
2017-03-15T00:14:38.804Z,1021.04
2017-03-15T00:15:48.792Z,1021.07
2017-03-15T00:16:59.099Z,1021.05
2017-03-15T00:18:09.415Z,1021.08
2017-03-15T00:19:19.675Z,1021.04
2017-03-15T00:20:29.977Z,1021.06
2017-03-15T00:21:40.270Z,1021
2017-03-15T00:22:50.573Z,1021.02
2017-03-15T00:24:00.564Z,1021.13
2017-03-15T00:25:11.118Z,1021.1
2017-03-15T00:26:21.416Z,1021.13
2017-03-15T00:27:31.726Z,1021.18
2017-03-15T00:28:41.733Z,1021.13
2017-03-15T00:29:52.034Z,1021.1
2017-03-15T00:31:02.277Z,1021.08
2017-03-15T00:32:12.626Z,1021.01
2017-03-15T00:33:22.926Z,1021.01
2017-03-15T00:34:32.928Z,1021.02
2017-03-15T00:35:43.314Z,1021.01
2017-03-15T00:36:53.995Z,1021.01
2017-03-15T00:38:04.299Z,1020.96
2017-03-15T00:39:14.612Z,1020.92
2017-03-15T00:40:24.913Z,1020.9
2017-03-15T00:41:34.898Z,1020.95
2017-03-15T00:42:45.451Z,1020.99
2017-03-15T00:43:55.754Z,1020.95
2017-03-15T00:45:05.435Z,1020.9
2017-03-15T00:46:15.746Z,1020.97
2017-03-15T00:47:26.052Z,1020.94
2017-03-15T00:48:36.317Z,1020.94
2017-03-15T00:49:46.306Z,1020.9
2017-03-15T00:50:56.603Z,1020.94
2017-03-15T00:52:06.297Z,1020.96
2017-03-15T00:53:16.300Z,1021
2017-03-15T00:54:26.590Z,1020.97
2017-03-15T00:55:36.585Z,1020.95
2017-03-15T00:56:46.898Z,1020.91
2017-03-15T00:57:56.881Z,1020.86
2017-03-15T00:59:06.894Z,1020.9
2017-03-15T01:00:17.441Z,1020.9
2017-03-15T01:01:27.740Z,1020.93
2017-03-15T01:02:38.090Z,1020.96
2017-03-15T01:03:48.425Z,1020.92
2017-03-15T01:04:58.430Z,1020.94
2017-03-15T01:06:08.986Z,1020.91
2017-03-15T01:07:19.289Z,1020.9
2017-03-15T01:08:29.588Z,1020.9
2017-03-15T01:09:39.893Z,1020.91
2017-03-15T01:10:50.194Z,1020.92
2017-03-15T01:12:00.762Z,1020.89
2017-03-15T01:13:10.766Z,1020.89
2017-03-15T01:14:21.073Z,1020.9
2017-03-15T01:15:31.374Z,1020.89
2017-03-15T01:16:41.356Z,1020.86
2017-03-15T01:17:51.911Z,1020.87
2017-03-15T01:19:01.895Z,1020.84
2017-03-15T01:20:11.883Z,1020.85
2017-03-15T01:21:22.199Z,1020.8
2017-03-15T01:22:32.510Z,1020.78
2017-03-15T01:23:43.118Z,1020.78
2017-03-15T01:24:53.421Z,1020.81
2017-03-15T01:26:03.399Z,1020.81
2017-03-15T01:27:13.703Z,1020.77
2017-03-15T01:28:24.011Z,1020.71
2017-03-15T01:29:34.609Z,1020.72
2017-03-15T01:30:44.918Z,1020.77
2017-03-15T01:31:55.226Z,1020.77
2017-03-15T01:33:05.236Z,1020.79
2017-03-15T01:34:15.533Z,1020.82
2017-03-15T01:35:25.786Z,1020.77
2017-03-15T01:36:36.084Z,1020.78
2017-03-15T01:37:46.071Z,1020.77
2017-03-15T01:38:56.083Z,1020.75
2017-03-15T01:40:06.065Z,1020.77
2017-03-15T01:41:16.305Z,1020.76
2017-03-15T01:42:26.603Z,1020.74
2017-03-15T01:43:36.907Z,1020.69
2017-03-15T01:44:46.896Z,1020.63
2017-03-15T01:45:56.884Z,1020.66
2017-03-15T01:47:07.124Z,1020.62
2017-03-15T01:48:16.791Z,1020.66
2017-03-15T01:49:27.098Z,1020.67
2017-03-15T01:50:37.089Z,1020.67
2017-03-15T01:51:47.385Z,1020.64
2017-03-15T01:52:57.940Z,1020.67
2017-03-15T01:54:08.253Z,1020.64
2017-03-15T01:55:18.244Z,1020.61
2017-03-15T01:56:28.545Z,1020.66
2017-03-15T01:57:38.859Z,1020.58
2017-03-15T01:58:49.405Z,1020.61
2017-03-15T01:59:59.734Z,1020.66
2017-03-15T02:01:10.029Z,1020.66
2017-03-15T02:02:20.328Z,1020.67
2017-03-15T02:03:30.634Z,1020.69
2017-03-15T02:04:41.188Z,1020.66
2017-03-15T02:05:51.204Z,1020.68
2017-03-15T02:07:01.511Z,1020.63
2017-03-15T02:08:11.510Z,1020.64
2017-03-15T02:09:21.800Z,1020.69
2017-03-15T02:10:32.036Z,1020.68
2017-03-15T02:11:42.030Z,1020.69
2017-03-15T02:12:52.023Z,1020.67
2017-03-15T02:14:02.005Z,1020.67
2017-03-15T02:15:11.991Z,1020.64
2017-03-15T02:16:22.589Z,1020.69
2017-03-15T02:17:32.589Z,1020.65
2017-03-15T02:18:42.881Z,1020.61
2017-03-15T02:19:52.856Z,1020.65
2017-03-15T02:21:03.262Z,1020.66
2017-03-15T02:22:12.921Z,1020.63
2017-03-15T02:23:23.226Z,1020.72
2017-03-15T02:24:33.524Z,1020.72
2017-03-15T02:25:43.521Z,1020.72
2017-03-15T02:26:53.524Z,1020.77
2017-03-15T02:28:04.073Z,1020.77
2017-03-15T02:29:14.372Z,1020.83
2017-03-15T02:30:24.686Z,1020.77
2017-03-15T02:31:34.987Z,1020.79
2017-03-15T02:32:45.283Z,1020.81
2017-03-15T02:33:55.501Z,1020.85
2017-03-15T02:35:05.794Z,1020.83
2017-03-15T02:36:15.780Z,1020.8
2017-03-15T02:37:26.081Z,1020.82
2017-03-15T02:38:36.055Z,1020.85
2017-03-15T02:39:46.618Z,1020.87
2017-03-15T02:40:56.625Z,1020.87
2017-03-15T02:42:06.945Z,1020.86
2017-03-15T02:43:16.932Z,1020.91
2017-03-15T02:44:27.228Z,1020.98
2017-03-15T02:45:37.480Z,1021
2017-03-15T02:46:47.472Z,1021.01
2017-03-15T02:47:57.776Z,1021.03
2017-03-15T02:49:08.074Z,1021
2017-03-15T02:50:18.066Z,1021.01
2017-03-15T02:51:28.305Z,1021.03
2017-03-15T02:52:38.628Z,1021.03
2017-03-15T02:53:48.932Z,1021.06
2017-03-15T02:54:59.239Z,1021.06
2017-03-15T02:56:09.549Z,1021.11
2017-03-15T02:57:20.100Z,1021.03
2017-03-15T02:58:30.096Z,1021.08
2017-03-15T02:59:40.414Z,1021.1
2017-03-15T03:00:50.724Z,1021.1
2017-03-15T03:02:00.419Z,1021.08
2017-03-15T03:03:10.667Z,1021.09
2017-03-15T03:04:20.669Z,1021.09
2017-03-15T03:05:30.982Z,1021.1
2017-03-15T03:06:40.973Z,1021.06
2017-03-15T03:07:51.278Z,1021.04
2017-03-15T03:09:01.885Z,1021.05
2017-03-15T03:10:12.189Z,1021.04
2017-03-15T03:11:22.181Z,1021.04
2017-03-15T03:12:31.543Z,1021.03
2017-03-15T03:13:41.550Z,1021.03
2017-03-15T03:14:51.799Z,1021.05
2017-03-15T03:16:01.806Z,1021.08
2017-03-15T03:17:11.806Z,1021.07
2017-03-15T03:18:22.123Z,1021.11
2017-03-15T03:19:32.129Z,1021.11
2017-03-15T03:20:42.375Z,1021.08
2017-03-15T03:21:52.368Z,1021.03
2017-03-15T03:23:02.349Z,1021.04
2017-03-15T03:24:12.027Z,1021.04
2017-03-15T03:25:22.016Z,1021.05
2017-03-15T03:26:32.631Z,1021.07
2017-03-15T03:27:42.932Z,1021.09
2017-03-15T03:28:53.237Z,1021.11
2017-03-15T03:30:03.222Z,1021.11
2017-03-15T03:31:13.220Z,1021.15
2017-03-15T03:32:22.881Z,1021.14
2017-03-15T03:33:33.213Z,1021.06
2017-03-15T03:34:43.297Z,1021.16
2017-03-15T03:35:53.389Z,1021.21
2017-03-15T03:37:03.361Z,1021.23
2017-03-15T03:38:13.958Z,1021.21
2017-03-15T03:39:24.253Z,1021.22
2017-03-15T03:40:34.580Z,1021.25
2017-03-15T03:41:44.573Z,1021.28
2017-03-15T03:42:54.572Z,1021.29
2017-03-15T03:44:04.817Z,1021.3
2017-03-15T03:45:15.113Z,1021.31
2017-03-15T03:46:25.115Z,1021.32
2017-03-15T03:47:35.114Z,1021.34
2017-03-15T03:48:45.105Z,1021.35
2017-03-15T03:49:55.710Z,1021.39
2017-03-15T03:51:05.700Z,1021.34
2017-03-15T03:52:15.367Z,1021.35
2017-03-15T03:53:25.681Z,1021.36
2017-03-15T03:54:36.026Z,1021.32
2017-03-15T03:55:46.270Z,1021.34
2017-03-15T03:56:56.583Z,1021.35
2017-03-15T03:58:06.908Z,1021.37
2017-03-15T03:59:17.210Z,1021.36
2017-03-15T04:00:27.511Z,1021.35
2017-03-15T04:01:37.744Z,1021.35
2017-03-15T04:02:47.727Z,1021.35
2017-03-15T04:03:57.716Z,1021.4
2017-03-15T04:05:07.408Z,1021.38
2017-03-15T04:06:17.409Z,1021.4
2017-03-15T04:07:27.962Z,1021.42
2017-03-15T04:08:37.959Z,1021.4
2017-03-15T04:09:47.945Z,1021.37
2017-03-15T04:10:58.243Z,1021.42
2017-03-15T04:12:08.601Z,1021.42
2017-03-15T04:13:19.149Z,1021.45
2017-03-15T04:14:29.158Z,1021.4
2017-03-15T04:15:39.185Z,1021.41
2017-03-15T04:16:49.486Z,1021.39
2017-03-15T04:17:59.485Z,1021.4
2017-03-15T04:19:10.026Z,1021.44
2017-03-15T04:20:20.327Z,1021.45
2017-03-15T04:21:30.623Z,1021.44
2017-03-15T04:22:40.605Z,1021.49
2017-03-15T04:23:50.914Z,1021.48
2017-03-15T04:25:01.530Z,1021.53
2017-03-15T04:26:11.514Z,1021.5
2017-03-15T04:27:21.805Z,1021.49
2017-03-15T04:28:32.106Z,1021.48
2017-03-15T04:29:42.414Z,1021.5
2017-03-15T04:30:52.973Z,1021.5
2017-03-15T04:32:03.265Z,1021.51
2017-03-15T04:33:13.251Z,1021.5
2017-03-15T04:34:23.558Z,1021.53
2017-03-15T04:35:33.561Z,1021.45
2017-03-15T04:36:43.853Z,1021.49
2017-03-15T04:37:54.151Z,1021.5
2017-03-15T04:39:04.154Z,1021.51
2017-03-15T04:40:14.451Z,1021.49
2017-03-15T04:41:24.771Z,1021.51
2017-03-15T04:42:35.361Z,1021.55
2017-03-15T04:43:45.658Z,1021.55
2017-03-15T04:44:55.644Z,1021.59
2017-03-15T04:46:05.948Z,1021.49
2017-03-15T04:47:15.949Z,1021.58
2017-03-15T04:48:26.487Z,1021.57
2017-03-15T04:49:36.785Z,1021.51
2017-03-15T04:50:46.974Z,1021.54
2017-03-15T04:51:56.975Z,1021.58
2017-03-15T04:53:07.287Z,1021.6
2017-03-15T04:54:17.590Z,1021.63
2017-03-15T04:55:27.882Z,1021.59
2017-03-15T04:56:38.185Z,1021.58
2017-03-15T04:57:48.487Z,1021.59
2017-03-15T04:58:58.472Z,1021.57
2017-03-15T05:00:09.016Z,1021.57
2017-03-15T05:01:19.022Z,1021.62
2017-03-15T05:02:29.335Z,1021.63
2017-03-15T05:03:39.642Z,1021.62
2017-03-15T05:04:49.949Z,1021.66
2017-03-15T05:06:00.245Z,1021.65
2017-03-15T05:07:10.541Z,1021.61
2017-03-15T05:08:20.522Z,1021.59
2017-03-15T05:09:30.847Z,1021.61
2017-03-15T05:10:41.157Z,1021.67
2017-03-15T05:11:51.712Z,1021.64
2017-03-15T05:13:02.032Z,1021.64
2017-03-15T05:14:12.023Z,1021.71
2017-03-15T05:15:22.026Z,1021.73
2017-03-15T05:16:32.026Z,1021.67
2017-03-15T05:17:42.644Z,1021.7
2017-03-15T05:18:52.948Z,1021.69
2017-03-15T05:20:02.928Z,1021.71
2017-03-15T05:21:12.915Z,1021.72
2017-03-15T05:22:23.206Z,1021.74
2017-03-15T05:23:33.453Z,1021.78
2017-03-15T05:24:43.473Z,1021.75
2017-03-15T05:25:53.456Z,1021.72
2017-03-15T05:27:03.447Z,1021.68
2017-03-15T05:28:13.757Z,1021.77
2017-03-15T05:29:24.317Z,1021.77
2017-03-15T05:30:34.624Z,1021.84
2017-03-15T05:31:44.632Z,1021.85
2017-03-15T05:32:54.622Z,1021.81
2017-03-15T05:34:03.990Z,1021.85
2017-03-15T05:35:14.606Z,1021.91
2017-03-15T05:36:24.909Z,1021.93
2017-03-15T05:37:34.912Z,1021.95
2017-03-15T05:38:44.896Z,1021.95
2017-03-15T05:39:55.194Z,1022.03
2017-03-15T05:41:05.488Z,1022.04
2017-03-15T05:42:15.789Z,1022.03
2017-03-15T05:43:26.092Z,1022.06
2017-03-15T05:44:36.402Z,1022.06
2017-03-15T05:45:46.407Z,1022.17
2017-03-15T05:46:56.951Z,1022.17
2017-03-15T05:48:06.943Z,1022.17
2017-03-15T05:49:17.239Z,1022.18
2017-03-15T05:50:27.542Z,1022.26
2017-03-15T05:51:37.853Z,1022.31
2017-03-15T05:52:48.458Z,1022.29
2017-03-15T05:53:58.780Z,1022.33
2017-03-15T05:55:09.092Z,1022.33
2017-03-15T05:56:18.774Z,1022.39
2017-03-15T05:57:28.763Z,1022.38
2017-03-15T05:58:39.008Z,1022.42
2017-03-15T05:59:49.309Z,1022.35
2017-03-15T06:00:59.623Z,1022.36
2017-03-15T06:02:09.920Z,1022.38
2017-03-15T06:03:20.236Z,1022.38
2017-03-15T06:04:30.541Z,1022.36
2017-03-15T06:05:40.861Z,1022.34
2017-03-15T06:06:51.159Z,1022.37
2017-03-15T06:08:01.143Z,1022.36
2017-03-15T06:09:11.139Z,1022.4
2017-03-15T06:10:21.696Z,1022.44
2017-03-15T06:11:31.702Z,1022.55
2017-03-15T06:12:41.706Z,1022.58
2017-03-15T06:13:52.033Z,1022.52
2017-03-15T06:15:02.039Z,1022.52
2017-03-15T06:16:12.646Z,1022.53
2017-03-15T06:17:22.644Z,1022.55
2017-03-15T06:18:32.654Z,1022.49
2017-03-15T06:19:42.993Z,1022.56
2017-03-15T06:20:53.304Z,1022.59
2017-03-15T06:22:03.549Z,1022.63
2017-03-15T06:23:13.859Z,1022.68
2017-03-15T06:24:23.549Z,1022.69
2017-03-15T06:25:33.540Z,1022.73
2017-03-15T06:26:43.948Z,1022.73
2017-03-15T06:27:54.234Z,1022.75
2017-03-15T06:29:04.566Z,1022.7
2017-03-15T06:30:14.896Z,1022.71
2017-03-15T06:31:25.236Z,1022.75
2017-03-15T06:32:35.578Z,1022.76
2017-03-15T06:33:46.161Z,1022.87
2017-03-15T06:34:55.852Z,1022.89
2017-03-15T06:36:06.180Z,1022.93
2017-03-15T06:37:16.173Z,1022.98
2017-03-15T06:38:26.536Z,1022.94
2017-03-15T06:39:36.834Z,1022.95
2017-03-15T06:40:47.140Z,1023.02
2017-03-15T06:41:57.149Z,1023.01
2017-03-15T06:43:07.530Z,1023.04
2017-03-15T06:44:17.826Z,1023.09
2017-03-15T06:45:27.763Z,1023.15
2017-03-15T06:46:38.077Z,1023.17
2017-03-15T06:47:48.386Z,1023.11
2017-03-15T06:48:58.720Z,1023.15
2017-03-15T06:50:09.033Z,1023.14
2017-03-15T06:51:19.633Z,1023.19
2017-03-15T06:52:29.629Z,1023.25
2017-03-15T06:53:39.946Z,1023.26
2017-03-15T06:54:50.319Z,1023.27
2017-03-15T06:56:00.616Z,1023.21
2017-03-15T06:57:11.181Z,1023.23
2017-03-15T06:58:21.498Z,1023.29
2017-03-15T06:59:31.798Z,1023.29
2017-03-15T07:00:41.799Z,1023.33
2017-03-15T07:01:52.140Z,1023.23
2017-03-15T07:03:02.762Z,1023.33
2017-03-15T07:04:12.746Z,1023.29
2017-03-15T07:05:22.738Z,1023.3
2017-03-15T07:06:33.053Z,1023.32
2017-03-15T07:07:43.066Z,1023.39
2017-03-15T07:08:53.328Z,1023.38
2017-03-15T07:10:03.334Z,1023.39
2017-03-15T07:11:13.338Z,1023.39
2017-03-15T07:12:23.338Z,1023.35
2017-03-15T07:13:33.665Z,1023.4
2017-03-15T07:14:43.908Z,1023.34
2017-03-15T07:15:54.230Z,1023.38
2017-03-15T07:17:04.237Z,1023.39
2017-03-15T07:18:14.590Z,1023.42
2017-03-15T07:19:24.967Z,1023.39
2017-03-15T07:20:35.524Z,1023.34
2017-03-15T07:21:45.834Z,1023.41
2017-03-15T07:22:55.856Z,1023.43
2017-03-15T07:24:06.160Z,1023.42
2017-03-15T07:25:16.496Z,1023.47
2017-03-15T07:26:27.047Z,1023.36
2017-03-15T07:27:36.762Z,1023.38
2017-03-15T07:28:47.117Z,1023.36
2017-03-15T07:29:57.450Z,1023.42
2017-03-15T07:31:07.505Z,1023.45
2017-03-15T07:32:17.763Z,1023.39
2017-03-15T07:33:28.097Z,1023.36
2017-03-15T07:34:38.413Z,1023.34
2017-03-15T07:35:48.461Z,1023.36
2017-03-15T07:36:58.817Z,1023.45
2017-03-15T07:38:09.392Z,1023.51
2017-03-15T07:39:19.718Z,1023.54
2017-03-15T07:40:29.732Z,1023.53
2017-03-15T07:41:40.082Z,1023.51
2017-03-15T07:42:50.425Z,1023.58
2017-03-15T07:44:00.990Z,1023.59
2017-03-15T07:45:11.001Z,1023.58
2017-03-15T07:46:20.699Z,1023.57
2017-03-15T07:47:31.040Z,1023.58
2017-03-15T07:48:41.414Z,1023.57
2017-03-15T07:49:51.967Z,1023.47
2017-03-15T07:51:02.013Z,1023.58
2017-03-15T07:52:12.382Z,1023.57
2017-03-15T07:53:22.440Z,1023.49
2017-03-15T07:54:32.800Z,1023.49
2017-03-15T07:55:43.084Z,1023.45
2017-03-15T07:56:53.499Z,1023.55
2017-03-15T07:58:03.870Z,1023.59
2017-03-15T07:59:13.588Z,1023.56
2017-03-15T08:00:24.152Z,1023.54
2017-03-15T08:01:34.483Z,1023.53
2017-03-15T08:02:44.538Z,1023.55
2017-03-15T08:03:54.888Z,1023.5
2017-03-15T08:05:05.235Z,1023.5
2017-03-15T08:06:15.319Z,1023.44
2017-03-15T08:07:25.632Z,1023.46
2017-03-15T08:08:35.972Z,1023.42
2017-03-15T08:09:46.307Z,1023.45
2017-03-15T08:10:56.320Z,1023.48
2017-03-15T08:12:06.671Z,1023.57
2017-03-15T08:13:17.276Z,1023.58
2017-03-15T08:14:27.316Z,1023.58
2017-03-15T08:15:37.629Z,1023.59
2017-03-15T08:16:47.639Z,1023.59
2017-03-15T08:17:57.969Z,1023.55
2017-03-15T08:19:08.537Z,1023.55
2017-03-15T08:20:18.874Z,1023.46
2017-03-15T08:21:29.211Z,1023.36
2017-03-15T08:22:39.539Z,1023.33
2017-03-15T08:23:49.549Z,1023.37
2017-03-15T08:25:00.415Z,1023.29
2017-03-15T08:26:10.793Z,1023.28
2017-03-15T08:27:21.315Z,1023.29
2017-03-15T08:28:31.648Z,1023.33
2017-03-15T08:29:41.433Z,1023.36
2017-03-15T08:30:52.060Z,1023.31
2017-03-15T08:32:02.144Z,1023.36
2017-03-15T08:33:12.474Z,1023.35
2017-03-15T08:34:22.782Z,1023.38
2017-03-15T08:35:32.772Z,1023.43
2017-03-15T08:36:43.434Z,1023.38
2017-03-15T08:37:53.767Z,1023.41
2017-03-15T08:39:03.769Z,1023.34
2017-03-15T08:40:14.092Z,1023.27
2017-03-15T08:41:24.102Z,1023.24
2017-03-15T08:42:34.730Z,1023.18
2017-03-15T08:43:44.417Z,1023.16
2017-03-15T08:44:54.769Z,1023.22
2017-03-15T08:46:05.079Z,1023.23
2017-03-15T08:47:15.399Z,1023.22
2017-03-15T08:48:26.020Z,1023.22
2017-03-15T08:49:36.579Z,1023.22
2017-03-15T08:50:46.932Z,1023.25
2017-03-15T08:51:57.254Z,1023.17
2017-03-15T08:53:07.571Z,1023.22
2017-03-15T08:54:18.218Z,1023.22
2017-03-15T08:55:28.625Z,1023.22
2017-03-15T08:56:38.630Z,1023.23
2017-03-15T08:57:48.326Z,1023.33
2017-03-15T08:58:58.649Z,1023.28
2017-03-15T09:00:09.234Z,1023.27
2017-03-15T09:01:19.228Z,1023.31
2017-03-15T09:02:29.235Z,1023.18
2017-03-15T09:03:39.549Z,1023.22
2017-03-15T09:04:49.856Z,1023.24
2017-03-15T09:05:59.795Z,1023.16
2017-03-15T09:07:10.131Z,1023.12
2017-03-15T09:08:20.441Z,1023.16
2017-03-15T09:09:30.453Z,1023.11
2017-03-15T09:10:40.772Z,1023.15
2017-03-15T09:11:51.315Z,1023.14
2017-03-15T09:13:01.313Z,1023.1
2017-03-15T09:14:11.642Z,1022.99
2017-03-15T09:15:21.955Z,1023.03
2017-03-15T09:16:32.287Z,1023.03
2017-03-15T09:17:42.914Z,1023.07
2017-03-15T09:18:53.242Z,1023.12
2017-03-15T09:20:03.568Z,1023.06
2017-03-15T09:21:13.916Z,1023.12
2017-03-15T09:22:23.936Z,1023.03
2017-03-15T09:23:34.188Z,1023.03
2017-03-15T09:24:43.888Z,1023.04
2017-03-15T09:25:53.586Z,1023.02
2017-03-15T09:27:03.902Z,1023.07
2017-03-15T09:28:14.229Z,1023.03
2017-03-15T09:29:24.794Z,1022.98
2017-03-15T09:30:35.149Z,1022.98
2017-03-15T09:31:45.482Z,1022.96
2017-03-15T09:32:55.859Z,1022.91
2017-03-15T09:34:05.872Z,1023
2017-03-15T09:35:16.451Z,1022.97
2017-03-15T09:36:26.844Z,1023.03
2017-03-15T09:37:37.207Z,1023
2017-03-15T09:38:47.530Z,1023.03
2017-03-15T09:39:57.877Z,1023.04
2017-03-15T09:41:08.145Z,1023.03
2017-03-15T09:42:18.166Z,1023.02
2017-03-15T09:43:28.477Z,1023.01
2017-03-15T09:44:38.803Z,1022.99
2017-03-15T09:45:49.122Z,1023.04
2017-03-15T09:46:59.103Z,1023.02
2017-03-15T09:48:09.453Z,1023.14
2017-03-15T09:49:19.459Z,1023.15
2017-03-15T09:50:29.187Z,1023.15
2017-03-15T09:51:39.797Z,1023.19
2017-03-15T09:52:50.353Z,1023.17
2017-03-15T09:54:00.696Z,1023.15
2017-03-15T09:55:11.046Z,1023.28
2017-03-15T09:56:21.363Z,1023.21
2017-03-15T09:57:32.059Z,1023.3
2017-03-15T09:58:42.478Z,1023.33
2017-03-15T09:59:52.822Z,1023.34
2017-03-15T10:01:03.216Z,1023.42
2017-03-15T10:02:13.555Z,1023.35
2017-03-15T10:03:24.147Z,1023.34
2017-03-15T10:04:34.512Z,1023.31
2017-03-15T10:05:44.850Z,1023.29
2017-03-15T10:06:54.870Z,1023.21
2017-03-15T10:08:05.238Z,1023.33
2017-03-15T10:09:15.924Z,1023.26
2017-03-15T10:10:26.502Z,1023.31
2017-03-15T10:11:36.820Z,1023.28
2017-03-15T10:12:46.969Z,1023.43
2017-03-15T10:13:57.292Z,1023.31
2017-03-15T10:15:07.969Z,1023.31
2017-03-15T10:16:17.973Z,1023.31
2017-03-15T10:17:28.344Z,1023.33
2017-03-15T10:18:38.655Z,1023.27
2017-03-15T10:19:48.982Z,1023.28
2017-03-15T10:20:59.593Z,1023.26
2017-03-15T10:22:09.900Z,1023.35
2017-03-15T10:23:20.216Z,1023.29
2017-03-15T10:24:29.928Z,1023.29
2017-03-15T10:25:39.723Z,1023.29
2017-03-15T10:26:49.998Z,1023.31
2017-03-15T10:27:59.369Z,1023.29
2017-03-15T10:29:09.405Z,1023.29
2017-03-15T10:30:19.963Z,1023.29
2017-03-15T10:31:30.303Z,1023.19
2017-03-15T10:32:40.553Z,1023.27
2017-03-15T10:33:50.914Z,1023.23
2017-03-15T10:35:01.230Z,1023.19
2017-03-15T10:36:11.561Z,1023.24
2017-03-15T10:37:21.981Z,1023.26
2017-03-15T10:38:32.312Z,1023.31
2017-03-15T10:39:42.650Z,1023.22
2017-03-15T10:40:52.992Z,1023.45
2017-03-15T10:42:03.343Z,1023.34
2017-03-15T10:43:13.706Z,1023.41
2017-03-15T10:44:23.713Z,1023.42
2017-03-15T10:45:33.743Z,1023.4
2017-03-15T10:46:43.735Z,1023.4
2017-03-15T10:47:53.740Z,1023.44
2017-03-15T10:49:04.048Z,1023.53
2017-03-15T10:50:13.777Z,1023.52
2017-03-15T10:51:24.167Z,1023.56
2017-03-15T10:52:34.416Z,1023.57
2017-03-15T10:53:44.777Z,1023.59
2017-03-15T10:54:55.365Z,1023.51
2017-03-15T10:56:05.685Z,1023.48
2017-03-15T10:57:15.710Z,1023.47
2017-03-15T10:58:26.019Z,1023.48
2017-03-15T10:59:36.018Z,1023.47
2017-03-15T11:00:46.308Z,1023.4
2017-03-15T11:01:56.316Z,1023.49
2017-03-15T11:03:06.475Z,1023.41
2017-03-15T11:04:16.805Z,1023.27
2017-03-15T11:05:27.155Z,1023.43
2017-03-15T11:06:37.417Z,1023.35
2017-03-15T11:07:47.750Z,1023.36
2017-03-15T11:08:58.070Z,1023.4
2017-03-15T11:10:08.061Z,1023.48
2017-03-15T11:11:18.067Z,1023.43
2017-03-15T11:12:28.710Z,1023.32
2017-03-15T11:13:38.721Z,1023.35
2017-03-15T11:14:48.452Z,1023.2
2017-03-15T11:15:58.457Z,1023.21
2017-03-15T11:17:08.499Z,1023.27
2017-03-15T11:18:18.438Z,1023.26
2017-03-15T11:19:28.775Z,1023.22
2017-03-15T11:20:39.091Z,1023.18
2017-03-15T11:21:49.414Z,1023.21
2017-03-15T11:22:59.443Z,1023.2
2017-03-15T11:24:10.023Z,1023.24
2017-03-15T11:25:20.032Z,1023.28
2017-03-15T11:26:30.019Z,1023.22
2017-03-15T11:27:40.364Z,1023.25
2017-03-15T11:28:50.353Z,1023.26
2017-03-15T11:30:00.928Z,1023.27
2017-03-15T11:31:10.929Z,1023.23
2017-03-15T11:32:21.247Z,1023.22
2017-03-15T11:33:30.921Z,1023.22
2017-03-15T11:34:41.239Z,1023.22
2017-03-15T11:35:51.502Z,1023.16
2017-03-15T11:37:01.558Z,1023.19
2017-03-15T11:38:11.989Z,1023.18
2017-03-15T11:39:22.313Z,1023.15
2017-03-15T11:40:32.653Z,1023.13
2017-03-15T11:41:43.257Z,1023.03
2017-03-15T11:42:52.622Z,1023.02
2017-03-15T11:44:02.928Z,1022.93
2017-03-15T11:45:12.625Z,1022.91
2017-03-15T11:46:22.325Z,1022.95
2017-03-15T11:47:32.603Z,1022.87
2017-03-15T11:48:42.899Z,1022.89
2017-03-15T11:49:52.292Z,1022.88
2017-03-15T11:51:02.627Z,1022.85
2017-03-15T11:52:12.306Z,1022.82
2017-03-15T11:53:22.618Z,1022.83
2017-03-15T11:54:32.613Z,1022.71
2017-03-15T11:55:42.292Z,1022.75
2017-03-15T11:56:52.630Z,1022.83
2017-03-15T11:58:02.623Z,1022.84
2017-03-15T11:59:12.860Z,1022.82
2017-03-15T12:00:22.847Z,1022.91
2017-03-15T12:01:32.557Z,1022.92
2017-03-15T12:02:42.572Z,1022.9
2017-03-15T12:03:52.579Z,1022.95
2017-03-15T12:05:03.144Z,1022.85
2017-03-15T12:06:13.465Z,1022.81
2017-03-15T12:07:23.786Z,1022.81
2017-03-15T12:08:33.786Z,1022.95
2017-03-15T12:09:43.778Z,1022.97
2017-03-15T12:10:54.341Z,1023.04
2017-03-15T12:12:04.654Z,1023.05
2017-03-15T12:13:14.948Z,1023.04
2017-03-15T12:14:24.937Z,1022.99
2017-03-15T12:15:35.237Z,1022.99
2017-03-15T12:16:45.775Z,1022.98
2017-03-15T12:17:56.120Z,1023.07
2017-03-15T12:19:06.109Z,1023.07
2017-03-15T12:20:16.099Z,1023.08
2017-03-15T12:21:26.406Z,1023.1
2017-03-15T12:22:37.007Z,1023.02
2017-03-15T12:23:46.997Z,1023.06
2017-03-15T12:24:57.309Z,1023.07
2017-03-15T12:26:07.640Z,1023.08
2017-03-15T12:27:17.949Z,1023.06
2017-03-15T12:28:28.502Z,1022.98
2017-03-15T12:29:38.807Z,1022.98
2017-03-15T12:30:48.838Z,1023.04
2017-03-15T12:31:58.579Z,1022.99
2017-03-15T12:33:08.566Z,1022.99
2017-03-15T12:34:18.804Z,1023.04
2017-03-15T12:35:29.141Z,1022.99
2017-03-15T12:36:39.452Z,1022.95
2017-03-15T12:37:49.456Z,1022.99
2017-03-15T12:38:59.782Z,1022.95
2017-03-15T12:40:10.361Z,1023.03
2017-03-15T12:41:20.362Z,1022.99
2017-03-15T12:42:30.662Z,1023.03
2017-03-15T12:43:40.981Z,1023.05
2017-03-15T12:44:51.325Z,1022.98
2017-03-15T12:46:01.949Z,1022.97
2017-03-15T12:47:12.278Z,1022.97
2017-03-15T12:48:22.588Z,1022.95
2017-03-15T12:49:32.896Z,1022.96
2017-03-15T12:50:43.232Z,1022.87
2017-03-15T12:51:53.542Z,1022.93
2017-03-15T12:53:02.923Z,1022.95
2017-03-15T12:54:13.370Z,1022.9
2017-03-15T12:55:25.639Z,1022.93
2017-03-15T12:56:35.951Z,1022.95
2017-03-15T12:57:46.588Z,1022.92
2017-03-15T12:58:56.585Z,1022.92
2017-03-15T13:00:06.959Z,1022.96
2017-03-15T13:01:17.260Z,1022.93
2017-03-15T13:02:27.282Z,1023.02
2017-03-15T13:03:37.901Z,1022.99
2017-03-15T13:04:47.915Z,1022.98
2017-03-15T13:05:57.919Z,1022.98
2017-03-15T13:07:07.930Z,1022.97
2017-03-15T13:08:18.242Z,1023.03
2017-03-15T13:09:28.815Z,1023.01
2017-03-15T13:10:39.138Z,1023.01
2017-03-15T13:11:49.468Z,1023.03
2017-03-15T13:12:59.782Z,1022.99
2017-03-15T13:14:09.775Z,1023.04
2017-03-15T13:15:20.927Z,1023.05
2017-03-15T13:16:31.231Z,1023.1
2017-03-15T13:17:41.256Z,1023.07
2017-03-15T13:18:51.262Z,1023.06
2017-03-15T13:20:01.244Z,1023.02
2017-03-15T13:21:11.990Z,1023.04
2017-03-15T13:22:21.692Z,1023.04
2017-03-15T13:23:31.379Z,1023.14
2017-03-15T13:24:41.379Z,1023.16
2017-03-15T13:25:51.388Z,1023.14
2017-03-15T13:27:01.630Z,1023.11
2017-03-15T13:28:11.941Z,1023.1
2017-03-15T13:29:22.244Z,1023.17
2017-03-15T13:30:32.556Z,1023.2
2017-03-15T13:31:42.242Z,1023.19
2017-03-15T13:32:52.811Z,1023.14
2017-03-15T13:34:03.122Z,1023.08
2017-03-15T13:35:13.123Z,1023.12
2017-03-15T13:36:23.583Z,1023.11
2017-03-15T13:37:33.911Z,1023.09
2017-03-15T13:38:44.558Z,1023.1
2017-03-15T13:39:54.890Z,1023.16
2017-03-15T13:41:04.624Z,1023.13
2017-03-15T13:42:14.933Z,1023.16
2017-03-15T13:43:25.244Z,1023.07
2017-03-15T13:44:36.013Z,1023.08
2017-03-15T13:45:46.319Z,1023.09
2017-03-15T13:46:56.703Z,1023.11
2017-03-15T13:48:07.282Z,1023.05
2017-03-15T13:49:17.581Z,1023.08
2017-03-15T13:50:28.216Z,1023.02
2017-03-15T13:51:38.240Z,1022.97
2017-03-15T13:52:48.601Z,1022.98
2017-03-15T13:53:58.958Z,1022.97
2017-03-15T13:55:09.279Z,1022.98
2017-03-15T13:56:19.836Z,1023
2017-03-15T13:57:30.205Z,1023.03
2017-03-15T13:58:40.529Z,1023.02
2017-03-15T13:59:50.904Z,1023
2017-03-15T14:01:01.049Z,1023.01
2017-03-15T14:02:11.404Z,1023.08
2017-03-15T14:03:21.702Z,1023.06
2017-03-15T14:04:32.002Z,1023.09
2017-03-15T14:05:42.328Z,1023.09
2017-03-15T14:06:52.615Z,1023.08
2017-03-15T14:08:03.175Z,1023.05
2017-03-15T14:09:13.146Z,1023.03
2017-03-15T14:10:23.156Z,1022.99
2017-03-15T14:11:33.187Z,1023.03
2017-03-15T14:12:43.497Z,1022.97